sensor_id;sensor_type;location;lat;lon;timestamp;P1;durP1;ratioP1;P2;durP2;ratioP2
40837;SDS011;29632;49.168;9.848;2022-08-19T00:01:27;15.05;;;11.60;;
40837;SDS011;29632;49.168;9.848;2022-08-19T00:03:58;13.35;;;11.95;;
40837;SDS011;29632;49.168;9.848;2022-08-19T00:06:28;12.77;;;11.18;;
40837;SDS011;29632;49.168;9.848;2022-08-19T00:08:55;12.48;;;11.18;;
40837;SDS011;29632;49.168;9.848;2022-08-19T00:11:22;13.65;;;12.25;;
40837;SDS011;29632;49.168;9.848;2022-08-19T00:13:49;13.73;;;12.32;;
40837;SDS011;29632;49.168;9.848;2022-08-19T00:16:15;15.65;;;12.77;;
40837;SDS011;29632;49.168;9.848;2022-08-19T00:18:46;13.65;;;11.98;;
40837;SDS011;29632;49.168;9.848;2022-08-19T00:21:13;13.15;;;11.43;;
40837;SDS011;29632;49.168;9.848;2022-08-19T00:23:39;14.38;;;12.88;;
40837;SDS011;29632;49.168;9.848;2022-08-19T00:26:06;15.63;;;12.80;;
40837;SDS011;29632;49.168;9.848;2022-08-19T00:28:33;12.80;;;11.43;;
40837;SDS011;29632;49.168;9.848;2022-08-19T00:31:00;14.13;;;11.75;;
40837;SDS011;29632;49.168;9.848;2022-08-19T00:33:31;14.25;;;10.90;;
40837;SDS011;29632;49.168;9.848;2022-08-19T00:35:59;14.00;;;11.48;;
40837;SDS011;29632;49.168;9.848;2022-08-19T00:38:27;13.70;;;12.13;;
40837;SDS011;29632;49.168;9.848;2022-08-19T00:40:53;15.30;;;12.38;;
40837;SDS011;29632;49.168;9.848;2022-08-19T00:43:20;17.15;;;13.43;;
40837;SDS011;29632;49.168;9.848;2022-08-19T00:48:16;11.93;;;10.68;;
40837;SDS011;29632;49.168;9.848;2022-08-19T00:50:43;13.82;;;12.10;;
40837;SDS011;29632;49.168;9.848;2022-08-19T00:53:11;14.85;;;13.25;;
40837;SDS011;29632;49.168;9.848;2022-08-19T00:55:39;14.27;;;11.30;;
40837;SDS011;29632;49.168;9.848;2022-08-19T00:58:08;13.35;;;11.75;;
40837;SDS011;29632;49.168;9.848;2022-08-19T01:00:39;14.77;;;11.85;;
40837;SDS011;29632;49.168;9.848;2022-08-19T01:03:05;15.25;;;13.05;;
40837;SDS011;29632;49.168;9.848;2022-08-19T01:05:34;15.63;;;12.80;;
40837;SDS011;29632;49.168;9.848;2022-08-19T01:08:02;14.57;;;12.23;;
40837;SDS011;29632;49.168;9.848;2022-08-19T01:10:30;15.05;;;12.48;;
40837;SDS011;29632;49.168;9.848;2022-08-19T01:13:20;15.23;;;12.25;;
40837;SDS011;29632;49.168;9.848;2022-08-19T01:15:56;13.10;;;11.70;;
40837;SDS011;29632;49.168;9.848;2022-08-19T01:18:27;15.15;;;12.95;;
40837;SDS011;29632;49.168;9.848;2022-08-19T01:20:54;14.30;;;12.07;;
40837;SDS011;29632;49.168;9.848;2022-08-19T01:23:23;14.35;;;11.73;;
40837;SDS011;29632;49.168;9.848;2022-08-19T01:26:08;14.20;;;11.57;;
40837;SDS011;29632;49.168;9.848;2022-08-19T01:28:41;14.07;;;11.35;;
40837;SDS011;29632;49.168;9.848;2022-08-19T01:31:10;12.55;;;10.82;;
40837;SDS011;29632;49.168;9.848;2022-08-19T01:33:46;12.68;;;10.50;;
40837;SDS011;29632;49.168;9.848;2022-08-19T01:36:14;12.05;;;10.65;;
40837;SDS011;29632;49.168;9.848;2022-08-19T01:38:51;13.65;;;12.13;;
40837;SDS011;29632;49.168;9.848;2022-08-19T01:41:17;14.23;;;12.30;;
40837;SDS011;29632;49.168;9.848;2022-08-19T01:43:43;12.35;;;11.00;;
40837;SDS011;29632;49.168;9.848;2022-08-19T01:46:10;12.52;;;10.75;;
40837;SDS011;29632;49.168;9.848;2022-08-19T01:48:37;14.43;;;11.98;;
40837;SDS011;29632;49.168;9.848;2022-08-19T01:51:06;13.32;;;11.68;;
40837;SDS011;29632;49.168;9.848;2022-08-19T01:53:34;13.57;;;11.20;;
40837;SDS011;29632;49.168;9.848;2022-08-19T01:56:00;13.50;;;11.48;;
40837;SDS011;29632;49.168;9.848;2022-08-19T01:58:33;12.63;;;11.25;;
40837;SDS011;29632;49.168;9.848;2022-08-19T02:01:06;14.57;;;11.10;;
40837;SDS011;29632;49.168;9.848;2022-08-19T02:03:33;14.73;;;11.55;;
40837;SDS011;29632;49.168;9.848;2022-08-19T02:06:02;14.90;;;11.73;;
40837;SDS011;29632;49.168;9.848;2022-08-19T02:08:30;13.50;;;10.82;;
40837;SDS011;29632;49.168;9.848;2022-08-19T02:10:58;14.20;;;11.02;;
40837;SDS011;29632;49.168;9.848;2022-08-19T02:13:24;13.90;;;10.93;;
40837;SDS011;29632;49.168;9.848;2022-08-19T02:15:51;11.77;;;9.73;;
40837;SDS011;29632;49.168;9.848;2022-08-19T02:18:17;14.02;;;11.10;;
40837;SDS011;29632;49.168;9.848;2022-08-19T02:20:43;11.82;;;9.70;;
40837;SDS011;29632;49.168;9.848;2022-08-19T02:23:10;13.57;;;11.00;;
40837;SDS011;29632;49.168;9.848;2022-08-19T02:25:37;12.60;;;10.48;;
40837;SDS011;29632;49.168;9.848;2022-08-19T02:28:03;12.65;;;11.13;;
40837;SDS011;29632;49.168;9.848;2022-08-19T02:30:30;14.15;;;11.98;;
40837;SDS011;29632;49.168;9.848;2022-08-19T02:32:57;13.07;;;11.68;;
40837;SDS011;29632;49.168;9.848;2022-08-19T02:35:23;12.73;;;10.63;;
40837;SDS011;29632;49.168;9.848;2022-08-19T02:37:49;14.25;;;11.73;;
40837;SDS011;29632;49.168;9.848;2022-08-19T02:40:34;12.82;;;10.35;;
40837;SDS011;29632;49.168;9.848;2022-08-19T02:43:01;13.23;;;11.75;;
40837;SDS011;29632;49.168;9.848;2022-08-19T02:45:33;12.95;;;10.77;;
40837;SDS011;29632;49.168;9.848;2022-08-19T02:48:00;12.38;;;10.93;;
40837;SDS011;29632;49.168;9.848;2022-08-19T02:50:28;12.80;;;10.27;;
40837;SDS011;29632;49.168;9.848;2022-08-19T02:52:54;13.07;;;10.23;;
40837;SDS011;29632;49.168;9.848;2022-08-19T02:55:19;13.35;;;11.25;;
40837;SDS011;29632;49.168;9.848;2022-08-19T02:57:46;13.45;;;11.23;;
40837;SDS011;29632;49.168;9.848;2022-08-19T03:00:12;14.52;;;11.60;;
40837;SDS011;29632;49.168;9.848;2022-08-19T03:02:39;14.52;;;11.32;;
40837;SDS011;29632;49.168;9.848;2022-08-19T03:05:06;13.18;;;11.30;;
40837;SDS011;29632;49.168;9.848;2022-08-19T03:07:34;13.57;;;11.18;;
40837;SDS011;29632;49.168;9.848;2022-08-19T03:10:01;14.25;;;11.07;;
40837;SDS011;29632;49.168;9.848;2022-08-19T03:12:29;14.40;;;10.85;;
40837;SDS011;29632;49.168;9.848;2022-08-19T03:14:55;13.60;;;11.68;;
40837;SDS011;29632;49.168;9.848;2022-08-19T03:17:21;14.32;;;11.95;;
40837;SDS011;29632;49.168;9.848;2022-08-19T03:19:47;15.02;;;11.93;;
40837;SDS011;29632;49.168;9.848;2022-08-19T03:22:13;13.65;;;11.88;;
40837;SDS011;29632;49.168;9.848;2022-08-19T03:24:39;14.20;;;10.88;;
40837;SDS011;29632;49.168;9.848;2022-08-19T03:27:05;12.07;;;10.52;;
40837;SDS011;29632;49.168;9.848;2022-08-19T03:29:31;13.80;;;11.55;;
40837;SDS011;29632;49.168;9.848;2022-08-19T03:32:02;13.25;;;10.82;;
40837;SDS011;29632;49.168;9.848;2022-08-19T03:34:30;13.07;;;10.73;;
40837;SDS011;29632;49.168;9.848;2022-08-19T03:36:59;14.13;;;11.65;;
40837;SDS011;29632;49.168;9.848;2022-08-19T03:39:30;13.88;;;11.43;;
40837;SDS011;29632;49.168;9.848;2022-08-19T03:41:56;13.57;;;10.98;;
40837;SDS011;29632;49.168;9.848;2022-08-19T03:44:23;14.27;;;11.75;;
40837;SDS011;29632;49.168;9.848;2022-08-19T03:46:50;12.98;;;10.43;;
40837;SDS011;29632;49.168;9.848;2022-08-19T03:49:20;13.10;;;11.70;;
40837;SDS011;29632;49.168;9.848;2022-08-19T03:51:47;15.40;;;12.10;;
40837;SDS011;29632;49.168;9.848;2022-08-19T03:54:16;13.48;;;10.95;;
40837;SDS011;29632;49.168;9.848;2022-08-19T03:56:46;12.50;;;10.43;;
40837;SDS011;29632;49.168;9.848;2022-08-19T03:59:21;13.25;;;11.73;;
40837;SDS011;29632;49.168;9.848;2022-08-19T04:01:52;13.15;;;10.98;;
40837;SDS011;29632;49.168;9.848;2022-08-19T04:04:20;13.02;;;10.52;;
40837;SDS011;29632;49.168;9.848;2022-08-19T04:06:47;14.60;;;11.43;;
40837;SDS011;29632;49.168;9.848;2022-08-19T04:09:13;12.70;;;11.35;;
40837;SDS011;29632;49.168;9.848;2022-08-19T04:11:49;13.45;;;12.02;;
40837;SDS011;29632;49.168;9.848;2022-08-19T04:14:20;12.38;;;10.52;;
40837;SDS011;29632;49.168;9.848;2022-08-19T04:16:49;14.20;;;11.65;;
40837;SDS011;29632;49.168;9.848;2022-08-19T04:19:16;14.15;;;11.68;;
40837;SDS011;29632;49.168;9.848;2022-08-19T04:21:44;13.82;;;12.15;;
40837;SDS011;29632;49.168;9.848;2022-08-19T04:24:12;13.52;;;11.55;;
40837;SDS011;29632;49.168;9.848;2022-08-19T04:26:38;14.60;;;11.63;;
40837;SDS011;29632;49.168;9.848;2022-08-19T04:29:06;13.90;;;11.85;;
40837;SDS011;29632;49.168;9.848;2022-08-19T04:31:36;14.38;;;11.65;;
40837;SDS011;29632;49.168;9.848;2022-08-19T04:34:05;13.15;;;11.65;;
40837;SDS011;29632;49.168;9.848;2022-08-19T04:36:38;14.60;;;11.45;;
40837;SDS011;29632;49.168;9.848;2022-08-19T04:39:11;14.85;;;12.02;;
40837;SDS011;29632;49.168;9.848;2022-08-19T04:41:42;13.63;;;11.77;;
40837;SDS011;29632;49.168;9.848;2022-08-19T04:44:27;15.00;;;11.35;;
40837;SDS011;29632;49.168;9.848;2022-08-19T04:46:55;14.88;;;12.30;;
40837;SDS011;29632;49.168;9.848;2022-08-19T04:49:22;16.50;;;13.27;;
40837;SDS011;29632;49.168;9.848;2022-08-19T04:51:49;14.93;;;11.48;;
40837;SDS011;29632;49.168;9.848;2022-08-19T04:54:18;14.02;;;12.25;;
40837;SDS011;29632;49.168;9.848;2022-08-19T04:56:47;14.55;;;12.27;;
40837;SDS011;29632;49.168;9.848;2022-08-19T04:59:14;15.85;;;12.75;;
40837;SDS011;29632;49.168;9.848;2022-08-19T05:01:43;13.70;;;12.17;;
40837;SDS011;29632;49.168;9.848;2022-08-19T05:04:15;14.93;;;12.35;;
40837;SDS011;29632;49.168;9.848;2022-08-19T05:06:45;13.43;;;11.95;;
40837;SDS011;29632;49.168;9.848;2022-08-19T05:09:13;15.23;;;12.93;;
40837;SDS011;29632;49.168;9.848;2022-08-19T05:11:42;14.18;;;11.75;;
40837;SDS011;29632;49.168;9.848;2022-08-19T05:14:08;14.32;;;11.27;;
40837;SDS011;29632;49.168;9.848;2022-08-19T05:16:38;13.80;;;12.33;;
40837;SDS011;29632;49.168;9.848;2022-08-19T05:19:05;14.82;;;11.95;;
40837;SDS011;29632;49.168;9.848;2022-08-19T05:21:49;16.45;;;12.70;;
40837;SDS011;29632;49.168;9.848;2022-08-19T05:24:34;13.57;;;11.50;;
40837;SDS011;29632;49.168;9.848;2022-08-19T05:27:00;14.73;;;12.97;;
40837;SDS011;29632;49.168;9.848;2022-08-19T05:29:28;13.52;;;11.57;;
40837;SDS011;29632;49.168;9.848;2022-08-19T05:31:56;14.75;;;11.30;;
40837;SDS011;29632;49.168;9.848;2022-08-19T05:34:24;14.77;;;11.68;;
40837;SDS011;29632;49.168;9.848;2022-08-19T05:36:52;15.23;;;12.52;;
40837;SDS011;29632;49.168;9.848;2022-08-19T05:39:22;16.10;;;12.30;;
40837;SDS011;29632;49.168;9.848;2022-08-19T05:41:52;14.25;;;11.60;;
40837;SDS011;29632;49.168;9.848;2022-08-19T05:44:22;13.02;;;11.55;;
40837;SDS011;29632;49.168;9.848;2022-08-19T05:46:56;13.43;;;12.02;;
40837;SDS011;29632;49.168;9.848;2022-08-19T05:49:24;13.52;;;11.77;;
40837;SDS011;29632;49.168;9.848;2022-08-19T05:51:52;14.13;;;11.98;;
40837;SDS011;29632;49.168;9.848;2022-08-19T05:54:20;15.90;;;12.10;;
40837;SDS011;29632;49.168;9.848;2022-08-19T05:56:48;14.88;;;12.43;;
40837;SDS011;29632;49.168;9.848;2022-08-19T05:59:16;16.08;;;12.30;;
40837;SDS011;29632;49.168;9.848;2022-08-19T06:01:44;14.98;;;12.02;;
40837;SDS011;29632;49.168;9.848;2022-08-19T06:04:17;15.43;;;12.30;;
40837;SDS011;29632;49.168;9.848;2022-08-19T06:06:45;14.43;;;12.90;;
40837;SDS011;29632;49.168;9.848;2022-08-19T06:09:12;15.20;;;12.07;;
40837;SDS011;29632;49.168;9.848;2022-08-19T06:11:39;16.30;;;12.70;;
40837;SDS011;29632;49.168;9.848;2022-08-19T06:14:12;16.13;;;13.82;;
40837;SDS011;29632;49.168;9.848;2022-08-19T06:16:44;14.60;;;12.68;;
40837;SDS011;29632;49.168;9.848;2022-08-19T06:19:15;14.40;;;11.57;;
40837;SDS011;29632;49.168;9.848;2022-08-19T06:21:44;14.43;;;12.20;;
40837;SDS011;29632;49.168;9.848;2022-08-19T06:24:14;14.20;;;11.80;;
40837;SDS011;29632;49.168;9.848;2022-08-19T06:26:43;14.35;;;11.68;;
40837;SDS011;29632;49.168;9.848;2022-08-19T06:29:11;15.20;;;12.75;;
40837;SDS011;29632;49.168;9.848;2022-08-19T06:31:41;15.68;;;12.57;;
40837;SDS011;29632;49.168;9.848;2022-08-19T06:34:15;13.30;;;11.25;;
40837;SDS011;29632;49.168;9.848;2022-08-19T06:36:43;15.93;;;13.25;;
40837;SDS011;29632;49.168;9.848;2022-08-19T06:41:42;14.52;;;11.63;;
40837;SDS011;29632;49.168;9.848;2022-08-19T06:44:12;14.80;;;12.02;;
40837;SDS011;29632;49.168;9.848;2022-08-19T06:46:40;14.63;;;11.40;;
40837;SDS011;29632;49.168;9.848;2022-08-19T06:49:07;14.52;;;12.18;;
40837;SDS011;29632;49.168;9.848;2022-08-19T06:51:38;14.27;;;11.75;;
40837;SDS011;29632;49.168;9.848;2022-08-19T06:54:09;15.57;;;11.82;;
40837;SDS011;29632;49.168;9.848;2022-08-19T06:56:36;17.40;;;13.35;;
40837;SDS011;29632;49.168;9.848;2022-08-19T06:59:12;13.65;;;11.25;;
40837;SDS011;29632;49.168;9.848;2022-08-19T07:01:42;15.63;;;11.45;;
40837;SDS011;29632;49.168;9.848;2022-08-19T07:04:12;14.00;;;11.90;;
40837;SDS011;29632;49.168;9.848;2022-08-19T07:06:40;14.02;;;12.07;;
40837;SDS011;29632;49.168;9.848;2022-08-19T07:09:11;16.52;;;12.23;;
40837;SDS011;29632;49.168;9.848;2022-08-19T07:11:42;13.10;;;11.35;;
40837;SDS011;29632;49.168;9.848;2022-08-19T07:14:10;15.30;;;11.27;;
40837;SDS011;29632;49.168;9.848;2022-08-19T07:16:37;13.60;;;11.88;;
40837;SDS011;29632;49.168;9.848;2022-08-19T07:19:03;16.45;;;12.57;;
40837;SDS011;29632;49.168;9.848;2022-08-19T07:21:29;15.90;;;12.02;;
40837;SDS011;29632;49.168;9.848;2022-08-19T07:23:55;16.40;;;12.50;;
40837;SDS011;29632;49.168;9.848;2022-08-19T07:26:25;17.77;;;12.45;;
40837;SDS011;29632;49.168;9.848;2022-08-19T07:28:55;14.35;;;11.65;;
40837;SDS011;29632;49.168;9.848;2022-08-19T07:31:23;14.57;;;12.32;;
40837;SDS011;29632;49.168;9.848;2022-08-19T07:33:51;16.33;;;12.20;;
40837;SDS011;29632;49.168;9.848;2022-08-19T07:36:21;14.48;;;11.70;;
40837;SDS011;29632;49.168;9.848;2022-08-19T07:38:50;14.80;;;11.70;;
40837;SDS011;29632;49.168;9.848;2022-08-19T07:41:21;14.98;;;12.65;;
40837;SDS011;29632;49.168;9.848;2022-08-19T07:43:50;13.48;;;11.50;;
40837;SDS011;29632;49.168;9.848;2022-08-19T07:46:18;15.68;;;12.20;;
40837;SDS011;29632;49.168;9.848;2022-08-19T07:48:45;14.70;;;11.95;;
40837;SDS011;29632;49.168;9.848;2022-08-19T07:51:14;15.88;;;11.20;;
40837;SDS011;29632;49.168;9.848;2022-08-19T07:53:43;12.77;;;10.50;;
40837;SDS011;29632;49.168;9.848;2022-08-19T07:56:11;16.00;;;12.40;;
40837;SDS011;29632;49.168;9.848;2022-08-19T07:58:39;13.73;;;11.52;;
40837;SDS011;29632;49.168;9.848;2022-08-19T08:01:10;14.52;;;10.55;;
40837;SDS011;29632;49.168;9.848;2022-08-19T08:03:40;13.35;;;10.65;;
40837;SDS011;29632;49.168;9.848;2022-08-19T08:06:25;13.00;;;9.88;;
40837;SDS011;29632;49.168;9.848;2022-08-19T08:09:10;13.13;;;11.73;;
40837;SDS011;29632;49.168;9.848;2022-08-19T08:11:40;13.07;;;10.73;;
40837;SDS011;29632;49.168;9.848;2022-08-19T08:14:13;15.05;;;11.85;;
40837;SDS011;29632;49.168;9.848;2022-08-19T08:16:42;13.93;;;11.10;;
40837;SDS011;29632;49.168;9.848;2022-08-19T08:19:10;14.18;;;11.77;;
40837;SDS011;29632;49.168;9.848;2022-08-19T08:21:39;15.68;;;11.63;;
40837;SDS011;29632;49.168;9.848;2022-08-19T08:24:06;15.60;;;11.00;;
40837;SDS011;29632;49.168;9.848;2022-08-19T08:26:32;12.38;;;10.80;;
40837;SDS011;29632;49.168;9.848;2022-08-19T08:28:58;14.93;;;10.90;;
40837;SDS011;29632;49.168;9.848;2022-08-19T08:31:24;13.05;;;10.80;;
40837;SDS011;29632;49.168;9.848;2022-08-19T08:33:49;13.30;;;11.05;;
40837;SDS011;29632;49.168;9.848;2022-08-19T08:36:15;14.32;;;11.57;;
40837;SDS011;29632;49.168;9.848;2022-08-19T08:38:43;14.95;;;11.45;;
40837;SDS011;29632;49.168;9.848;2022-08-19T08:41:37;13.45;;;10.77;;
40837;SDS011;29632;49.168;9.848;2022-08-19T08:44:52;13.80;;;10.43;;
40837;SDS011;29632;49.168;9.848;2022-08-19T08:47:30;12.68;;;9.82;;
40837;SDS011;29632;49.168;9.848;2022-08-19T08:50:16;11.65;;;9.55;;
40837;SDS011;29632;49.168;9.848;2022-08-19T08:52:50;12.55;;;10.30;;
40837;SDS011;29632;49.168;9.848;2022-08-19T08:55:22;13.90;;;10.93;;
40837;SDS011;29632;49.168;9.848;2022-08-19T08:57:55;13.30;;;10.23;;
40837;SDS011;29632;49.168;9.848;2022-08-19T09:00:35;15.23;;;10.77;;
40837;SDS011;29632;49.168;9.848;2022-08-19T09:03:25;11.75;;;10.10;;
40837;SDS011;29632;49.168;9.848;2022-08-19T09:05:56;13.53;;;11.10;;
40837;SDS011;29632;49.168;9.848;2022-08-19T09:08:43;12.05;;;10.43;;
40837;SDS011;29632;49.168;9.848;2022-08-19T09:17:15;13.65;;;10.18;;
40837;SDS011;29632;49.168;9.848;2022-08-19T09:19:58;11.60;;;9.77;;
40837;SDS011;29632;49.168;9.848;2022-08-19T09:22:37;14.23;;;10.88;;
40837;SDS011;29632;49.168;9.848;2022-08-19T09:27:32;12.55;;;10.38;;
40837;SDS011;29632;49.168;9.848;2022-08-19T09:29:58;12.95;;;10.13;;
40837;SDS011;29632;49.168;9.848;2022-08-19T09:32:24;15.43;;;9.63;;
40837;SDS011;29632;49.168;9.848;2022-08-19T09:34:51;12.57;;;9.63;;
40837;SDS011;29632;49.168;9.848;2022-08-19T09:37:23;11.07;;;9.48;;
40837;SDS011;29632;49.168;9.848;2022-08-19T09:39:49;12.85;;;9.15;;
40837;SDS011;29632;49.168;9.848;2022-08-19T09:42:16;11.85;;;9.32;;
40837;SDS011;29632;49.168;9.848;2022-08-19T09:44:42;12.60;;;10.02;;
40837;SDS011;29632;49.168;9.848;2022-08-19T09:47:09;11.65;;;9.32;;
40837;SDS011;29632;49.168;9.848;2022-08-19T09:49:37;12.20;;;9.60;;
40837;SDS011;29632;49.168;9.848;2022-08-19T09:52:04;13.73;;;9.65;;
40837;SDS011;29632;49.168;9.848;2022-08-19T09:54:35;12.98;;;9.20;;
40837;SDS011;29632;49.168;9.848;2022-08-19T09:57:02;12.07;;;9.88;;
40837;SDS011;29632;49.168;9.848;2022-08-19T09:59:29;10.68;;;9.48;;
40837;SDS011;29632;49.168;9.848;2022-08-19T10:01:55;11.90;;;9.20;;
40837;SDS011;29632;49.168;9.848;2022-08-19T10:04:21;12.43;;;9.60;;
40837;SDS011;29632;49.168;9.848;2022-08-19T10:06:48;13.45;;;9.93;;
40837;SDS011;29632;49.168;9.848;2022-08-19T10:09:16;12.98;;;10.38;;
40837;SDS011;29632;49.168;9.848;2022-08-19T10:11:44;11.80;;;9.93;;
40837;SDS011;29632;49.168;9.848;2022-08-19T10:14:14;11.27;;;9.75;;
40837;SDS011;29632;49.168;9.848;2022-08-19T10:16:41;11.73;;;9.77;;
40837;SDS011;29632;49.168;9.848;2022-08-19T10:19:08;12.43;;;9.93;;
40837;SDS011;29632;49.168;9.848;2022-08-19T10:21:34;10.90;;;9.73;;
40837;SDS011;29632;49.168;9.848;2022-08-19T10:24:02;10.60;;;9.07;;
40837;SDS011;29632;49.168;9.848;2022-08-19T10:26:31;12.88;;;9.40;;
40837;SDS011;29632;49.168;9.848;2022-08-19T10:29:06;11.95;;;8.95;;
40837;SDS011;29632;49.168;9.848;2022-08-19T10:31:33;12.68;;;9.52;;
40837;SDS011;29632;49.168;9.848;2022-08-19T10:33:59;13.25;;;9.43;;
40837;SDS011;29632;49.168;9.848;2022-08-19T10:36:28;12.52;;;9.65;;
40837;SDS011;29632;49.168;9.848;2022-08-19T10:39:01;11.82;;;9.02;;
40837;SDS011;29632;49.168;9.848;2022-08-19T10:41:36;10.48;;;8.93;;
40837;SDS011;29632;49.168;9.848;2022-08-19T10:44:05;11.73;;;9.50;;
40837;SDS011;29632;49.168;9.848;2022-08-19T10:46:34;9.38;;;8.35;;
40837;SDS011;29632;49.168;9.848;2022-08-19T10:49:06;11.60;;;8.35;;
40837;SDS011;29632;49.168;9.848;2022-08-19T10:51:33;10.48;;;8.85;;
40837;SDS011;29632;49.168;9.848;2022-08-19T10:54:18;12.15;;;9.57;;
40837;SDS011;29632;49.168;9.848;2022-08-19T10:56:44;11.20;;;9.23;;
40837;SDS011;29632;49.168;9.848;2022-08-19T10:59:17;12.73;;;9.38;;
40837;SDS011;29632;49.168;9.848;2022-08-19T11:01:48;12.60;;;9.73;;
40837;SDS011;29632;49.168;9.848;2022-08-19T11:04:15;11.32;;;9.85;;
40837;SDS011;29632;49.168;9.848;2022-08-19T11:06:43;11.55;;;9.07;;
40837;SDS011;29632;49.168;9.848;2022-08-19T11:09:12;11.82;;;9.30;;
40837;SDS011;29632;49.168;9.848;2022-08-19T11:11:45;13.38;;;9.50;;
40837;SDS011;29632;49.168;9.848;2022-08-19T11:14:13;12.27;;;9.45;;
40837;SDS011;29632;49.168;9.848;2022-08-19T11:16:44;12.85;;;9.07;;
40837;SDS011;29632;49.168;9.848;2022-08-19T11:19:11;13.32;;;9.85;;
40837;SDS011;29632;49.168;9.848;2022-08-19T11:21:40;10.80;;;8.80;;
40837;SDS011;29632;49.168;9.848;2022-08-19T11:24:10;12.02;;;9.45;;
40837;SDS011;29632;49.168;9.848;2022-08-19T11:26:48;21.92;;;9.48;;
40837;SDS011;29632;49.168;9.848;2022-08-19T11:29:18;10.80;;;9.23;;
40837;SDS011;29632;49.168;9.848;2022-08-19T11:31:47;12.10;;;9.18;;
40837;SDS011;29632;49.168;9.848;2022-08-19T11:34:19;11.25;;;9.55;;
40837;SDS011;29632;49.168;9.848;2022-08-19T11:36:51;12.68;;;9.45;;
40837;SDS011;29632;49.168;9.848;2022-08-19T11:39:20;11.43;;;9.30;;
40837;SDS011;29632;49.168;9.848;2022-08-19T11:41:47;11.43;;;9.27;;
40837;SDS011;29632;49.168;9.848;2022-08-19T11:44:13;13.68;;;9.80;;
40837;SDS011;29632;49.168;9.848;2022-08-19T11:46:39;11.23;;;9.35;;
40837;SDS011;29632;49.168;9.848;2022-08-19T11:49:10;13.00;;;10.07;;
40837;SDS011;29632;49.168;9.848;2022-08-19T11:51:36;15.07;;;11.05;;
40837;SDS011;29632;49.168;9.848;2022-08-19T11:54:03;12.43;;;10.35;;
40837;SDS011;29632;49.168;9.848;2022-08-19T11:56:30;10.85;;;9.10;;
40837;SDS011;29632;49.168;9.848;2022-08-19T11:58:56;11.18;;;9.85;;
40837;SDS011;29632;49.168;9.848;2022-08-19T12:01:23;13.57;;;10.48;;
40837;SDS011;29632;49.168;9.848;2022-08-19T12:03:51;11.50;;;9.38;;
40837;SDS011;29632;49.168;9.848;2022-08-19T12:06:20;11.88;;;10.30;;
40837;SDS011;29632;49.168;9.848;2022-08-19T12:08:58;11.20;;;9.32;;
40837;SDS011;29632;49.168;9.848;2022-08-19T12:11:29;10.32;;;9.10;;
40837;SDS011;29632;49.168;9.848;2022-08-19T12:13:54;11.18;;;9.52;;
40837;SDS011;29632;49.168;9.848;2022-08-19T12:16:22;13.45;;;9.63;;
40837;SDS011;29632;49.168;9.848;2022-08-19T12:18:52;11.02;;;9.85;;
40837;SDS011;29632;49.168;9.848;2022-08-19T12:21:21;10.45;;;9.07;;
40837;SDS011;29632;49.168;9.848;2022-08-19T12:23:53;12.13;;;8.23;;
40837;SDS011;29632;49.168;9.848;2022-08-19T12:26:20;10.90;;;8.98;;
40837;SDS011;29632;49.168;9.848;2022-08-19T12:28:46;11.38;;;8.90;;
40837;SDS011;29632;49.168;9.848;2022-08-19T12:31:13;10.18;;;8.77;;
40837;SDS011;29632;49.168;9.848;2022-08-19T12:33:40;10.10;;;8.75;;
40837;SDS011;29632;49.168;9.848;2022-08-19T12:36:08;9.63;;;8.32;;
40837;SDS011;29632;49.168;9.848;2022-08-19T12:38:37;11.88;;;10.55;;
40837;SDS011;29632;49.168;9.848;2022-08-19T12:41:04;10.70;;;9.55;;
40837;SDS011;29632;49.168;9.848;2022-08-19T12:43:35;12.85;;;9.18;;
40837;SDS011;29632;49.168;9.848;2022-08-19T12:46:02;10.82;;;8.95;;
40837;SDS011;29632;49.168;9.848;2022-08-19T12:48:30;11.45;;;9.82;;
40837;SDS011;29632;49.168;9.848;2022-08-19T12:50:56;10.77;;;8.50;;
40837;SDS011;29632;49.168;9.848;2022-08-19T12:53:22;12.00;;;9.45;;
40837;SDS011;29632;49.168;9.848;2022-08-19T12:55:54;11.40;;;8.63;;
40837;SDS011;29632;49.168;9.848;2022-08-19T12:58:22;12.05;;;8.88;;
40837;SDS011;29632;49.168;9.848;2022-08-19T13:00:48;9.75;;;8.02;;
40837;SDS011;29632;49.168;9.848;2022-08-19T13:03:14;11.32;;;8.82;;
40837;SDS011;29632;49.168;9.848;2022-08-19T13:05:40;9.13;;;7.88;;
40837;SDS011;29632;49.168;9.848;2022-08-19T13:08:07;8.07;;;6.05;;
40837;SDS011;29632;49.168;9.848;2022-08-19T13:10:34;7.85;;;5.80;;
40837;SDS011;29632;49.168;9.848;2022-08-19T13:13:02;6.90;;;4.95;;
40837;SDS011;29632;49.168;9.848;2022-08-19T13:15:35;7.38;;;4.72;;
40837;SDS011;29632;49.168;9.848;2022-08-19T13:18:05;5.65;;;4.28;;
40837;SDS011;29632;49.168;9.848;2022-08-19T13:20:34;7.35;;;5.40;;
40837;SDS011;29632;49.168;9.848;2022-08-19T13:23:00;5.85;;;4.75;;
40837;SDS011;29632;49.168;9.848;2022-08-19T13:25:26;7.18;;;4.60;;
40837;SDS011;29632;49.168;9.848;2022-08-19T13:27:52;6.10;;;4.28;;
40837;SDS011;29632;49.168;9.848;2022-08-19T13:30:20;6.18;;;4.75;;
40837;SDS011;29632;49.168;9.848;2022-08-19T13:33:05;7.18;;;4.63;;
40837;SDS011;29632;49.168;9.848;2022-08-19T13:35:42;6.47;;;4.72;;
40837;SDS011;29632;49.168;9.848;2022-08-19T13:38:20;7.15;;;4.68;;
40837;SDS011;29632;49.168;9.848;2022-08-19T13:40:47;6.18;;;4.65;;
40837;SDS011;29632;49.168;9.848;2022-08-19T13:43:15;5.82;;;4.70;;
40837;SDS011;29632;49.168;9.848;2022-08-19T13:45:42;6.13;;;4.28;;
40837;SDS011;29632;49.168;9.848;2022-08-19T13:48:08;7.28;;;4.68;;
40837;SDS011;29632;49.168;9.848;2022-08-19T13:50:37;7.80;;;5.57;;
40837;SDS011;29632;49.168;9.848;2022-08-19T13:53:06;7.15;;;4.70;;
40837;SDS011;29632;49.168;9.848;2022-08-19T13:55:41;8.35;;;4.60;;
40837;SDS011;29632;49.168;9.848;2022-08-19T13:58:08;6.40;;;4.97;;
40837;SDS011;29632;49.168;9.848;2022-08-19T14:00:36;6.38;;;4.30;;
40837;SDS011;29632;49.168;9.848;2022-08-19T14:03:09;7.00;;;4.20;;
40837;SDS011;29632;49.168;9.848;2022-08-19T14:05:36;6.18;;;4.85;;
40837;SDS011;29632;49.168;9.848;2022-08-19T14:08:02;6.50;;;5.00;;
40837;SDS011;29632;49.168;9.848;2022-08-19T14:10:28;7.35;;;6.25;;
40837;SDS011;29632;49.168;9.848;2022-08-19T14:12:56;9.27;;;5.75;;
40837;SDS011;29632;49.168;9.848;2022-08-19T14:15:25;7.40;;;5.72;;
40837;SDS011;29632;49.168;9.848;2022-08-19T14:17:52;8.98;;;6.30;;
40837;SDS011;29632;49.168;9.848;2022-08-19T14:20:19;8.10;;;5.90;;
40837;SDS011;29632;49.168;9.848;2022-08-19T14:22:46;7.82;;;5.80;;
40837;SDS011;29632;49.168;9.848;2022-08-19T14:25:14;7.05;;;5.43;;
40837;SDS011;29632;49.168;9.848;2022-08-19T14:27:45;7.45;;;5.72;;
40837;SDS011;29632;49.168;9.848;2022-08-19T14:30:12;7.70;;;5.70;;
40837;SDS011;29632;49.168;9.848;2022-08-19T14:35:08;7.20;;;5.57;;
40837;SDS011;29632;49.168;9.848;2022-08-19T14:37:35;6.82;;;5.63;;
40837;SDS011;29632;49.168;9.848;2022-08-19T14:40:01;9.10;;;6.15;;
40837;SDS011;29632;49.168;9.848;2022-08-19T14:42:28;7.78;;;5.45;;
40837;SDS011;29632;49.168;9.848;2022-08-19T14:44:58;6.57;;;5.00;;
40837;SDS011;29632;49.168;9.848;2022-08-19T14:47:24;8.48;;;5.18;;
40837;SDS011;29632;49.168;9.848;2022-08-19T14:49:51;8.18;;;5.20;;
40837;SDS011;29632;49.168;9.848;2022-08-19T14:52:18;8.23;;;5.40;;
40837;SDS011;29632;49.168;9.848;2022-08-19T14:54:44;7.90;;;5.18;;
40837;SDS011;29632;49.168;9.848;2022-08-19T14:57:13;6.85;;;4.85;;